createdAt,value
2019-03-12T00:01:08.173Z,15.07
2019-03-12T00:03:38.260Z,18.63
2019-03-12T00:06:07.951Z,17.67
2019-03-12T00:08:37.791Z,10.47
2019-03-12T00:11:07.405Z,15.73
2019-03-12T00:13:37.049Z,13.20
2019-03-12T00:16:06.564Z,10.33
2019-03-12T00:18:36.477Z,20.47
2019-03-12T00:21:06.089Z,20.60
2019-03-12T00:23:35.830Z,16.30
2019-03-12T00:26:05.500Z,17.03
2019-03-12T00:28:35.428Z,19.63
2019-03-12T00:31:05.048Z,18.50
2019-03-12T00:33:34.867Z,14.90
2019-03-12T00:36:04.489Z,12.90
2019-03-12T00:38:34.190Z,14.37
2019-03-12T00:41:03.750Z,16.70
2019-03-12T00:43:33.519Z,10.90
2019-03-12T00:46:03.086Z,18.40
2019-03-12T00:48:32.981Z,17.63
2019-03-12T00:51:02.531Z,18.53
2019-03-12T00:53:32.406Z,23.07
2019-03-12T00:56:01.905Z,15.33
2019-03-12T00:58:31.638Z,14.90
2019-03-12T01:01:01.327Z,17.97
2019-03-12T01:03:31.062Z,23.83
2019-03-12T01:06:00.688Z,20.93
2019-03-12T01:08:30.506Z,19.83
2019-03-12T01:11:00.064Z,14.80
2019-03-12T01:13:29.770Z,20.77
2019-03-12T01:15:59.370Z,18.23
2019-03-12T01:18:28.971Z,15.13
2019-03-12T01:20:58.539Z,14.30
2019-03-12T01:23:28.028Z,21.07
2019-03-12T01:25:57.530Z,17.73
2019-03-12T01:28:27.024Z,20.13
2019-03-12T01:30:56.653Z,19.67
2019-03-12T01:33:26.191Z,16.90
2019-03-12T01:35:55.833Z,16.30
2019-03-12T01:38:25.571Z,18.67
2019-03-12T01:40:55.193Z,20.37
2019-03-12T01:43:24.811Z,21.87
2019-03-12T01:45:54.697Z,19.63
2019-03-12T01:48:24.308Z,25.13
2019-03-12T01:50:54.160Z,21.17
2019-03-12T01:53:23.653Z,24.03
2019-03-12T01:55:53.182Z,18.77
2019-03-12T01:58:22.757Z,19.33
2019-03-12T02:00:52.348Z,25.37
2019-03-12T02:03:22.159Z,23.43
2019-03-12T02:05:51.677Z,23.17
2019-03-12T02:08:21.706Z,18.47
2019-03-12T02:10:51.240Z,17.20
2019-03-12T02:13:20.969Z,22.33
2019-03-12T02:15:50.592Z,16.93
2019-03-12T02:18:20.178Z,20.60
2019-03-12T02:20:49.744Z,19.00
2019-03-12T02:23:19.506Z,23.10
2019-03-12T02:25:50.803Z,18.10
2019-03-12T02:28:20.371Z,23.63
2019-03-12T02:30:50.013Z,19.07
2019-03-12T02:33:19.625Z,21.27
2019-03-12T02:35:49.119Z,19.80
2019-03-12T02:38:18.720Z,17.83
2019-03-12T02:40:48.228Z,19.20
2019-03-12T02:43:17.789Z,30.60
2019-03-12T02:45:47.724Z,24.80
2019-03-12T02:48:17.220Z,24.83
2019-03-12T02:50:46.759Z,25.47
2019-03-12T02:53:16.362Z,26.17
2019-03-12T02:55:46.299Z,24.97
2019-03-12T02:58:15.956Z,22.10
2019-03-12T03:00:45.774Z,23.33
2019-03-12T03:03:15.358Z,25.80
2019-03-12T03:05:46.722Z,19.17
2019-03-12T03:08:17.883Z,23.90
2019-03-12T03:10:47.870Z,36.57
2019-03-12T03:13:17.512Z,23.87
2019-03-12T03:15:47.750Z,36.20
2019-03-12T03:18:17.334Z,38.93
2019-03-12T03:20:46.999Z,32.60
2019-03-12T03:23:16.596Z,27.27
2019-03-12T03:25:46.302Z,34.87
2019-03-12T03:28:15.892Z,36.77
2019-03-12T03:30:45.799Z,37.23
2019-03-12T03:33:15.558Z,22.97
2019-03-12T03:35:45.189Z,30.83
2019-03-12T03:38:15.281Z,30.37
2019-03-12T03:40:45.096Z,26.27
2019-03-12T03:43:14.852Z,34.67
2019-03-12T03:45:44.625Z,38.43
2019-03-12T03:48:14.199Z,33.10
2019-03-12T03:50:43.973Z,34.37
2019-03-12T03:53:13.537Z,42.30
2019-03-12T03:55:43.118Z,34.33
2019-03-12T03:58:12.626Z,39.73
2019-03-12T04:00:42.217Z,30.37
2019-03-12T04:03:11.856Z,39.27
2019-03-12T04:05:41.622Z,37.87
2019-03-12T04:08:11.223Z,43.90
2019-03-12T04:10:41.023Z,37.33
2019-03-12T04:13:10.657Z,39.47
2019-03-12T04:15:40.612Z,40.77
2019-03-12T04:18:10.177Z,37.47
2019-03-12T04:20:39.928Z,38.40
2019-03-12T04:23:09.406Z,41.00
2019-03-12T04:25:39.024Z,40.13
2019-03-12T04:28:08.691Z,39.90
2019-03-12T04:30:38.384Z,43.80
2019-03-12T04:33:15.215Z,43.70
2019-03-12T04:35:44.780Z,45.27
2019-03-12T04:38:14.267Z,40.57
2019-03-12T04:40:43.946Z,41.00
2019-03-12T04:43:13.686Z,37.50
2019-03-12T04:45:43.351Z,47.60
2019-03-12T04:48:12.930Z,37.17
2019-03-12T04:50:42.431Z,35.60
2019-03-12T04:53:12.126Z,32.97
2019-03-12T04:55:41.707Z,31.90
2019-03-12T04:58:11.300Z,35.27
2019-03-12T05:00:41.101Z,42.83
2019-03-12T05:03:10.737Z,30.73
2019-03-12T05:05:40.527Z,43.70
2019-03-12T05:08:10.217Z,36.20
2019-03-12T05:10:39.702Z,26.77
2019-03-12T05:13:09.296Z,30.63
2019-03-12T05:15:43.121Z,30.63
2019-03-12T05:18:12.702Z,29.63
2019-03-12T05:20:42.289Z,25.33
2019-03-12T05:23:11.895Z,29.33
2019-03-12T05:25:41.806Z,27.03
2019-03-12T05:28:11.443Z,30.70
2019-03-12T05:30:41.079Z,34.50
2019-03-12T05:33:10.725Z,30.60
2019-03-12T05:35:40.282Z,31.87
2019-03-12T05:38:09.862Z,19.77
2019-03-12T05:40:39.492Z,23.07
2019-03-12T05:43:09.185Z,20.30
2019-03-12T05:45:38.901Z,26.43
2019-03-12T05:48:08.660Z,26.40
2019-03-12T05:50:38.386Z,15.70
2019-03-12T05:53:13.961Z,28.57
2019-03-12T05:55:43.543Z,20.00
2019-03-12T05:58:13.246Z,23.33
2019-03-12T06:00:42.990Z,24.03
2019-03-12T06:03:12.770Z,14.77
2019-03-12T06:05:42.357Z,26.57
2019-03-12T06:08:12.050Z,20.97
2019-03-12T06:10:41.737Z,24.07
2019-03-12T06:13:11.234Z,20.93
2019-03-12T06:15:40.869Z,26.63
2019-03-12T06:18:10.435Z,22.30
2019-03-12T06:20:40.135Z,23.73
2019-03-12T06:23:09.758Z,19.03
2019-03-12T06:25:39.321Z,18.97
2019-03-12T06:28:31.074Z,21.00
2019-03-12T06:30:59.550Z,15.67
2019-03-12T06:33:31.771Z,21.53
2019-03-12T06:36:09.060Z,19.47
2019-03-12T06:38:43.115Z,17.73
2019-03-12T06:41:14.348Z,24.73
2019-03-12T06:43:46.707Z,16.10
2019-03-12T06:46:35.900Z,17.80
2019-03-12T06:49:07.222Z,17.80
2019-03-12T06:51:44.167Z,21.23
2019-03-12T06:54:33.781Z,18.87
2019-03-12T06:57:20.582Z,19.00
2019-03-12T07:00:04.834Z,17.93
2019-03-12T07:02:34.226Z,18.37
2019-03-12T07:05:30.709Z,17.77
2019-03-12T07:08:01.951Z,20.13
2019-03-12T07:10:33.558Z,19.20
2019-03-12T07:13:07.512Z,16.57
2019-03-12T07:15:41.430Z,20.60
2019-03-12T07:18:12.803Z,16.83
2019-03-12T07:21:00.211Z,19.83
2019-03-12T07:23:47.641Z,16.27
2019-03-12T07:26:20.376Z,19.17
2019-03-12T07:28:54.528Z,19.33
2019-03-12T07:31:29.131Z,16.40
2019-03-12T07:34:03.835Z,19.30
2019-03-12T07:36:53.392Z,13.13
2019-03-12T07:39:25.249Z,16.90
2019-03-12T07:42:12.850Z,19.63
2019-03-12T07:44:44.627Z,20.87
2019-03-12T07:47:36.035Z,18.03
2019-03-12T07:50:18.759Z,15.03
2019-03-12T07:53:07.003Z,17.60
2019-03-12T07:55:44.017Z,14.87
2019-03-12T07:58:34.884Z,16.97
2019-03-12T08:01:11.933Z,14.13
2019-03-12T08:03:49.530Z,16.40
2019-03-12T08:06:36.034Z,16.13
2019-03-12T08:09:16.290Z,15.97
2019-03-12T08:11:47.562Z,14.60
2019-03-12T08:14:27.002Z,13.87
2019-03-12T08:17:01.041Z,13.43
2019-03-12T08:19:48.158Z,16.23
2019-03-12T08:22:37.191Z,12.63
2019-03-12T08:25:13.231Z,13.70
2019-03-12T08:27:57.942Z,11.67
2019-03-12T08:30:33.097Z,13.63
2019-03-12T08:33:13.734Z,15.97
2019-03-12T08:35:50.895Z,11.63
2019-03-12T08:38:31.375Z,16.23
2019-03-12T08:41:06.470Z,13.27
2019-03-12T08:43:47.932Z,14.50
2019-03-12T08:46:34.342Z,12.27
2019-03-12T08:49:09.831Z,11.33
2019-03-12T08:51:47.226Z,12.33
2019-03-12T08:54:30.035Z,8.87
2019-03-12T08:57:10.470Z,13.03
2019-03-12T08:59:50.835Z,10.77
2019-03-12T09:02:37.382Z,13.40
2019-03-12T09:05:24.869Z,10.63
2019-03-12T09:07:59.111Z,11.63
2019-03-12T09:10:32.749Z,10.93
2019-03-12T09:13:06.841Z,12.17
2019-03-12T09:15:55.096Z,12.27
2019-03-12T09:18:32.541Z,15.37
2019-03-12T09:21:03.727Z,11.77
2019-03-12T09:23:49.818Z,16.83
2019-03-12T09:26:37.413Z,12.93
2019-03-12T09:29:11.617Z,13.03
2019-03-12T09:31:42.967Z,12.73
2019-03-12T09:34:28.734Z,10.13
2019-03-12T09:37:15.542Z,12.80
2019-03-12T09:39:53.021Z,15.70
2019-03-12T09:42:29.886Z,9.40
2019-03-12T09:45:05.413Z,12.90
2019-03-12T09:47:42.847Z,13.20
2019-03-12T09:50:16.881Z,13.20
2019-03-12T09:52:48.167Z,11.60
2019-03-12T09:55:22.425Z,13.57
2019-03-12T09:58:03.420Z,11.43
2019-03-12T10:00:34.796Z,13.93
2019-03-12T10:03:21.937Z,15.00
2019-03-12T10:06:02.034Z,12.90
2019-03-12T10:08:49.576Z,12.90
2019-03-12T10:11:33.511Z,13.83
2019-03-12T10:14:11.333Z,12.00
2019-03-12T10:16:52.612Z,9.80
2019-03-12T10:19:33.358Z,6.83
2019-03-12T10:22:05.796Z,13.77
2019-03-12T10:24:53.434Z,10.33
2019-03-12T10:27:25.839Z,15.17
2019-03-12T10:29:55.231Z,9.87
2019-03-12T10:32:26.543Z,13.20
2019-03-12T10:35:10.058Z,10.47
2019-03-12T10:37:59.685Z,10.10
2019-03-12T10:40:40.249Z,8.93
2019-03-12T10:43:11.483Z,10.87
2019-03-12T10:46:01.074Z,10.87
2019-03-12T10:48:30.763Z,8.53
2019-03-12T10:51:00.467Z,6.40
2019-03-12T10:53:30.033Z,8.00
2019-03-12T10:55:59.925Z,8.23
2019-03-12T10:58:29.520Z,9.87
2019-03-12T11:00:59.173Z,14.63
2019-03-12T11:03:28.748Z,9.27
2019-03-12T11:05:58.818Z,7.93
2019-03-12T11:08:28.516Z,10.20
2019-03-12T11:10:58.244Z,13.80
2019-03-12T11:13:27.993Z,8.57
2019-03-12T11:15:57.659Z,9.33
2019-03-12T11:18:27.324Z,11.43
2019-03-12T11:20:58.801Z,7.10
2019-03-12T11:23:28.218Z,12.33
2019-03-12T11:25:57.958Z,7.90
2019-03-12T11:28:27.554Z,8.53
2019-03-12T11:30:57.235Z,14.43
2019-03-12T11:33:27.061Z,10.00
2019-03-12T11:35:56.593Z,7.50
2019-03-12T11:38:31.071Z,11.27
2019-03-12T11:41:00.912Z,10.17
2019-03-12T11:43:30.853Z,11.93
2019-03-12T11:46:00.458Z,10.03
2019-03-12T11:48:30.377Z,9.00
2019-03-12T11:50:59.919Z,10.40
2019-03-12T11:53:29.785Z,10.73
2019-03-12T11:55:59.572Z,13.20
2019-03-12T11:58:29.321Z,10.53
2019-03-12T12:01:00.642Z,8.53
2019-03-12T12:03:30.548Z,12.07
2019-03-12T12:06:00.157Z,12.07
2019-03-12T12:08:30.229Z,13.40
2019-03-12T12:11:00.151Z,12.00
2019-03-12T12:13:29.913Z,11.07
2019-03-12T12:15:59.648Z,10.97
2019-03-12T12:18:48.671Z,10.37
2019-03-12T12:21:18.348Z,13.07
2019-03-12T12:23:47.978Z,9.77
2019-03-12T12:26:17.955Z,10.97
2019-03-12T12:28:47.954Z,10.70
2019-03-12T12:31:17.782Z,8.47
2019-03-12T12:33:47.628Z,11.33
2019-03-12T12:36:17.428Z,12.27
2019-03-12T12:38:47.137Z,11.43
2019-03-12T12:41:16.864Z,12.63
2019-03-12T12:43:46.553Z,10.23
2019-03-12T12:46:16.272Z,11.17
2019-03-12T12:48:45.985Z,13.23
2019-03-12T12:51:15.826Z,10.07
2019-03-12T12:53:45.637Z,8.40
2019-03-12T12:56:15.189Z,16.73
2019-03-12T12:58:44.793Z,18.60
2019-03-12T13:01:14.624Z,13.07
2019-03-12T13:03:44.172Z,11.63
2019-03-12T13:06:13.804Z,13.57
2019-03-12T13:08:43.533Z,10.27
2019-03-12T13:11:13.210Z,11.30
2019-03-12T13:13:42.842Z,9.97
2019-03-12T13:16:24.390Z,9.10
2019-03-12T13:18:43.949Z,9.00
2019-03-12T13:21:13.678Z,11.53
2019-03-12T13:23:43.345Z,11.90
2019-03-12T13:26:13.192Z,9.33
2019-03-12T13:28:45.030Z,10.27
2019-03-12T13:31:14.347Z,12.37
2019-03-12T13:33:44.324Z,9.83
2019-03-12T13:36:14.968Z,10.27
2019-03-12T13:38:46.778Z,12.67
2019-03-12T13:41:16.019Z,14.17
2019-03-12T13:43:45.823Z,9.70
2019-03-12T13:46:15.631Z,16.53
2019-03-12T13:48:45.293Z,9.43
2019-03-12T13:51:14.953Z,7.90
2019-03-12T13:53:44.672Z,7.97
2019-03-12T13:56:14.673Z,10.97
2019-03-12T13:58:44.495Z,11.17
2019-03-12T14:01:14.237Z,9.63
2019-03-12T14:03:44.391Z,10.90
2019-03-12T14:06:14.583Z,8.10
2019-03-12T14:08:44.578Z,9.40
2019-03-12T14:11:14.526Z,9.40
2019-03-12T14:13:44.153Z,9.77
2019-03-12T14:16:13.985Z,9.70
2019-03-12T14:18:43.970Z,9.30
2019-03-12T14:21:14.981Z,13.37
2019-03-12T14:23:52.067Z,8.60
2019-03-12T14:26:21.943Z,10.77
2019-03-12T14:28:52.681Z,8.77
2019-03-12T14:31:22.736Z,7.87
2019-03-12T14:33:52.424Z,9.60
2019-03-12T14:36:22.146Z,8.03
2019-03-12T14:38:51.949Z,10.20
2019-03-12T14:41:21.568Z,11.70
2019-03-12T14:43:51.641Z,10.23
2019-03-12T14:46:22.032Z,6.50
2019-03-12T14:48:54.749Z,7.93
2019-03-12T14:51:40.489Z,9.07
2019-03-12T14:54:12.723Z,10.73
2019-03-12T14:56:43.085Z,8.37
2019-03-12T14:59:13.432Z,9.47
2019-03-12T15:01:43.275Z,8.70
2019-03-12T15:04:15.192Z,7.53
2019-03-12T15:06:45.795Z,5.80
2019-03-12T15:09:16.137Z,9.43
2019-03-12T15:11:45.790Z,8.77
2019-03-12T15:14:15.656Z,8.73
2019-03-12T15:16:45.698Z,10.80
2019-03-12T15:19:15.508Z,9.77
2019-03-12T15:21:45.486Z,8.13
2019-03-12T15:24:15.347Z,7.47
2019-03-12T15:26:44.960Z,8.47
2019-03-12T15:29:15.060Z,7.80
2019-03-12T15:31:44.718Z,6.90
2019-03-12T15:34:14.734Z,5.80
2019-03-12T15:36:45.516Z,9.80
2019-03-12T15:39:15.260Z,6.67
2019-03-12T15:41:45.007Z,9.20
2019-03-12T15:44:14.732Z,9.70
2019-03-12T15:46:44.896Z,6.10
2019-03-12T15:49:14.543Z,6.37
2019-03-12T15:51:44.411Z,7.77
2019-03-12T15:54:14.172Z,10.17
2019-03-12T15:56:46.280Z,7.43
2019-03-12T15:59:15.794Z,7.63
2019-03-12T16:01:45.821Z,9.23
2019-03-12T16:04:15.542Z,7.20
2019-03-12T16:06:45.455Z,7.47
2019-03-12T16:09:15.614Z,7.83
2019-03-12T16:11:45.608Z,7.37
2019-03-12T16:14:15.271Z,6.40
2019-03-12T16:16:45.336Z,9.27
2019-03-12T16:19:15.872Z,9.03
2019-03-12T16:21:45.950Z,7.00
2019-03-12T16:24:15.799Z,10.80
2019-03-12T16:26:45.626Z,7.83
2019-03-12T16:29:15.277Z,6.60
2019-03-12T16:31:45.445Z,8.73
2019-03-12T16:34:15.224Z,6.87
2019-03-12T16:36:45.255Z,10.37
2019-03-12T16:39:15.087Z,8.43
2019-03-12T16:41:45.154Z,8.17
2019-03-12T16:44:14.990Z,8.93
2019-03-12T16:46:44.642Z,6.27
2019-03-12T16:49:14.391Z,7.07
2019-03-12T16:51:44.479Z,7.00
2019-03-12T16:54:14.671Z,10.43
2019-03-12T16:56:45.781Z,8.77
2019-03-12T16:59:15.632Z,6.50
2019-03-12T17:01:45.397Z,8.37
2019-03-12T17:04:15.168Z,6.80
2019-03-12T17:06:44.937Z,9.20
2019-03-12T17:09:14.775Z,5.63
2019-03-12T17:11:44.418Z,8.93
2019-03-12T17:14:14.226Z,5.67
2019-03-12T17:16:43.873Z,7.33
2019-03-12T17:19:13.731Z,7.57
2019-03-12T17:21:43.324Z,8.73
2019-03-12T17:24:12.941Z,7.80
2019-03-12T17:26:42.431Z,7.30
2019-03-12T17:29:12.209Z,8.23
2019-03-12T17:31:41.726Z,9.27
2019-03-12T17:34:11.338Z,5.73
2019-03-12T17:36:40.952Z,8.57
2019-03-12T17:39:10.722Z,5.83
2019-03-12T17:41:40.375Z,5.83
2019-03-12T17:44:10.050Z,6.20
2019-03-12T17:46:40.024Z,5.97
2019-03-12T17:49:12.515Z,6.97
2019-03-12T17:51:41.423Z,6.00
2019-03-12T17:54:11.052Z,6.90
2019-03-12T17:56:40.600Z,6.37
2019-03-12T17:59:10.128Z,7.50
2019-03-12T18:01:39.834Z,6.57
2019-03-12T18:04:09.623Z,5.80
2019-03-12T18:06:39.278Z,6.07
2019-03-12T18:09:09.135Z,4.93
2019-03-12T18:11:41.458Z,7.07
2019-03-12T18:14:11.200Z,5.27
2019-03-12T18:16:41.600Z,5.10
2019-03-12T18:19:11.152Z,5.43
2019-03-12T18:21:40.741Z,6.90
2019-03-12T18:24:10.289Z,6.13
2019-03-12T18:26:39.905Z,5.42
2019-03-12T18:29:09.526Z,4.10
2019-03-12T18:31:39.140Z,6.07
2019-03-12T18:34:08.948Z,4.43
2019-03-12T18:36:38.420Z,5.83
2019-03-12T18:39:08.922Z,3.87
2019-03-12T18:41:38.677Z,5.70
2019-03-12T18:44:08.264Z,5.27
2019-03-12T18:46:37.907Z,3.90
2019-03-12T18:49:08.016Z,4.77
2019-03-12T18:51:37.740Z,9.23
2019-03-12T18:54:07.540Z,3.83
2019-03-12T18:56:37.171Z,4.93
2019-03-12T18:59:07.006Z,3.87
2019-03-12T19:01:36.632Z,5.13
2019-03-12T19:04:06.932Z,3.00
2019-03-12T19:06:36.748Z,5.05
2019-03-12T19:09:08.686Z,5.20
2019-03-12T19:11:38.456Z,3.30
2019-03-12T19:14:09.035Z,2.77
2019-03-12T19:16:38.971Z,4.80
2019-03-12T19:19:08.803Z,4.47
2019-03-12T19:21:38.574Z,5.33
2019-03-12T19:24:08.516Z,6.53
2019-03-12T19:26:38.659Z,6.73
2019-03-12T19:29:08.641Z,3.73
2019-03-12T19:31:52.257Z,7.43
2019-03-12T19:34:23.782Z,2.73
2019-03-12T19:36:53.379Z,3.70
2019-03-12T19:39:23.587Z,3.43
2019-03-12T19:41:53.424Z,6.40
2019-03-12T19:44:23.381Z,5.20
2019-03-12T19:46:53.309Z,4.27
2019-03-12T19:49:23.153Z,3.57
2019-03-12T19:51:52.898Z,4.27
2019-03-12T19:54:22.479Z,4.07
2019-03-12T19:56:52.115Z,7.33
2019-03-12T19:59:22.092Z,6.30
2019-03-12T20:01:54.640Z,3.57
2019-03-12T20:04:24.437Z,5.50
2019-03-12T20:07:13.750Z,3.13
2019-03-12T20:09:46.992Z,3.10
2019-03-12T20:12:33.746Z,5.40
2019-03-12T20:15:08.190Z,3.40
2019-03-12T20:18:14.358Z,5.03
2019-03-12T20:20:54.953Z,2.40
2019-03-12T20:23:44.778Z,7.00
2019-03-12T20:26:58.905Z,6.40
2019-03-12T20:29:51.283Z,3.30
2019-03-12T20:33:11.159Z,6.13
2019-03-12T20:36:36.117Z,6.40
2019-03-12T20:39:48.233Z,3.87
2019-03-12T20:42:51.465Z,3.43
2019-03-12T20:45:43.976Z,5.53
2019-03-12T20:49:11.098Z,4.03
2019-03-12T20:52:15.814Z,4.37
2019-03-12T20:55:36.192Z,4.93
2019-03-12T20:58:55.992Z,3.37
2019-03-12T21:01:47.463Z,3.67
2019-03-12T21:04:39.543Z,4.90
2019-03-12T21:07:33.418Z,3.23
2019-03-12T21:10:16.012Z,6.43
2019-03-12T21:13:22.196Z,3.47
2019-03-12T21:16:13.895Z,3.30
2019-03-12T21:19:18.121Z,3.63
2019-03-12T21:22:13.359Z,2.93
2019-03-12T21:25:16.782Z,4.40
2019-03-12T21:28:16.250Z,4.90
2019-03-12T21:30:46.187Z,3.57
2019-03-12T21:33:16.046Z,4.93
2019-03-12T21:35:45.985Z,5.33
2019-03-12T21:38:16.056Z,3.57
2019-03-12T21:40:45.806Z,3.33
2019-03-12T21:43:15.689Z,6.37
2019-03-12T21:45:48.291Z,3.77
2019-03-12T21:48:18.629Z,3.77
2019-03-12T21:50:48.453Z,3.97
2019-03-12T21:53:18.789Z,3.20
2019-03-12T21:55:48.751Z,3.53
2019-03-12T21:58:18.556Z,6.40
2019-03-12T22:00:48.485Z,5.20
2019-03-12T22:03:18.113Z,5.93
2019-03-12T22:05:48.088Z,4.83
2019-03-12T22:08:17.812Z,4.33
2019-03-12T22:10:47.735Z,5.23
2019-03-12T22:13:17.370Z,4.23
2019-03-12T22:15:47.262Z,3.87
2019-03-12T22:18:17.178Z,5.60
2019-03-12T22:20:46.816Z,3.50
2019-03-12T22:23:21.799Z,3.00
2019-03-12T22:25:51.825Z,4.70
2019-03-12T22:28:21.512Z,5.03
2019-03-12T22:30:51.334Z,2.20
2019-03-12T22:33:21.052Z,4.90
2019-03-12T22:35:50.944Z,5.00
2019-03-12T22:38:21.120Z,3.23
2019-03-12T22:40:50.945Z,5.23
2019-03-12T22:43:20.792Z,4.07
2019-03-12T22:45:50.416Z,1.67
2019-03-12T22:48:20.105Z,2.60
2019-03-12T22:50:49.769Z,1.70
2019-03-12T22:53:19.469Z,3.90
2019-03-12T22:55:49.780Z,1.90
2019-03-12T22:58:19.841Z,0.70
2019-03-12T23:00:50.674Z,1.10
2019-03-12T23:03:20.917Z,1.00
2019-03-12T23:05:50.617Z,0.80
2019-03-12T23:08:20.674Z,1.67
2019-03-12T23:10:50.754Z,2.33
2019-03-12T23:13:20.484Z,1.83
2019-03-12T23:15:50.223Z,1.20
2019-03-12T23:18:21.663Z,1.37
2019-03-12T23:20:51.490Z,2.97
2019-03-12T23:23:21.365Z,1.57
2019-03-12T23:25:51.002Z,1.50
2019-03-12T23:28:21.185Z,2.67
2019-03-12T23:30:51.047Z,2.63
2019-03-12T23:33:21.274Z,3.80
2019-03-12T23:35:50.881Z,2.60
2019-03-12T23:38:20.696Z,3.00
2019-03-12T23:40:50.277Z,2.83
2019-03-12T23:43:20.023Z,2.23
2019-03-12T23:45:49.579Z,2.20
2019-03-12T23:48:19.601Z,2.23
2019-03-12T23:50:49.219Z,2.70
2019-03-12T23:53:19.424Z,2.63
2019-03-12T23:55:49.138Z,3.63
2019-03-12T23:58:18.973Z,2.63
